Extreme weather reports worldwide

Rain

Station
 
Location
 
Name
 
Wind
Knots
Gust
Knots
Vis
SM
Temp/Dew
C
Baro
inHg
METAR
 
K0CO 22 32 3 2/-1 30.31 K0CO 022055Z AUTO 24022G32KT 3SM -RA SCT011 BKN022 OVC041 02/M01 A3031 RMK AO2
KFLY 21 32 7 17/9 30.07 KFLY 022055Z AUTO 20021G32KT 7SM +TSRA SCT040 SCT065 OVC095 17/09 A3007 RMK AO2 LTG DSNT ALQDS T01720091
TCS KTCS Truth Or Consequences, US Truth Or Consequences Municipal Airport 21 31 10 19/11 30.01 KTCS 022053Z AUTO 26021G31KT 10SM VCTS -RA BKN100 BKN120 19/11 A3001 RMK AO2 PK WND 26044/2036 WSHFT 2026 LTG DSNT ALQDS RAB39 SLP094 P0000 60000 T01940111 55010
CNM KCNM Carlsbad, US Cavern City Air Terminal 16 31 1 17/16 29.94 KCNM 022108Z AUTO 33016G31KT 1SM +TSRA BR BKN025 BKN040 OVC060 17/16 A2994 RMK AO2 PK WND 30041/2054 WSHFT 2050 LTG DSNT NW-NE PRESFR P0033 T01720161
CPR KCPR Casper, US Casper-Natrona County International Airport 21 29 10 15/6 29.98 KCPR 022053Z 25021G29KT 10SM -RA BKN065 OVC095 16/06 A2998 RMK AO2 PK WND 23031/2020 SLP121 P0001 60001 T01560061 53013

Station
 
Location
 
Name
 
Wind
Knots
Gust
Knots
Vis
SM
Temp/Dew
C
Baro
inHg
METAR
 
MAO SBEG Manaus, BR Eduardo Gomes International Airport 17 27 6.21 28/22 29.68 SBEG 022100Z 26017G27KT 9999 -TSRA SCT030 FEW035CB 28/22 Q1005 RERA
FDF TFFF Fort-de-France, MQ Martinique Aimé Césaire International Airport 12 27 28/25 29.70 TFFF 022100Z AUTO 22012G27KT 180V270 //// R10///// RA // SCT020/// BKN031/// BKN047/// ///CB 28/25 Q1006
RNJ RORY Yoronjima, JP Yoron Airport 16 26 6.21 26/26 29.76 RORY 022100Z AUTO 08016G26KT 9999 -RA FEW005 SCT019 BKN070 //////CB 26/26 Q1008
PKC UHPP Petropavlovsk-Kamchatsky, RU Yelizovo Airport 16 25 6.21 7/4 29.44 UHPP 022100Z 32008G13MPS 9999 -SHRA BKN030CB BKN049 07/04 Q0997 R34L/290260 NOSIG RMK MT OBSC QFE744/0993
CWLY 13 24 9 13/8 29.90 CWLY 022100Z AUTO 19013G24KT 160V220 9SM -RA OVC071 13/08 A2990 RMK SLP130
SVD TVSA Kingstown, VC Argyle International Airport 12 23 6.21 28/27 29.70 TVSA 022100Z 15012G23KT 9999 6000NE TSRA FEW012CB BKN014 28/27 Q1006 TEMPO TSRA
SAF KSAF Santa Fe, US Santa Fe Municipal Airport 14 22 6 16/8 30.05 KSAF 022053Z 27014G22KT 6SM TSRA BKN070 OVC090 16/09 A3005 RMK AO2 PK WND 16035/2002 WSHFT 2014 LTG DSNT N AND S RAB32 TSB52 SLP095 P0006 60006 T01610089 56020
ASE KASE Aspen, US Aspen-Pitkin Co/Sardy Field 11 21 9 10/3 30.08 KASE 022055Z 31011G21KT 9SM -RA SCT030 BKN045 OVC060 10/04 A3008 RMK AO2 P0000 T01000039
ABQ KABQ Albuquerque, US Albuquerque International Sunport 13 19 10 22/8 30.00 KABQ 022059Z 25013G19KT 10SM -TSRA FEW055 SCT075CB OVC110 22/08 A3000 RMK AO2 RAB59 TSB59 OCNL LTGCG S-SW TS S-SW MOV NE P0000 T02220083
TEX KTEX Telluride, US Telluride Regional Airport 8 19 10 7/1 30.16 KTEX 022055Z AUTO 27008G19KT 230V300 10SM -TSRA SCT040 BKN050 OVC080 07/01 A3016 RMK AO2 LTG DSNT SE AND S
YVP CYVP Kuujjuaq, CA Kuujjuaq Airport 7 19 15 6/0 29.84 CYVP 022100Z 30007G19KT 15SM -SHRA BKN035 BKN062 06/00 A2984 RMK CU5SC2 SLP107
YGL CYGL La Grande Rivière, CA La Grande Rivière Airport 9 17 4 7/7 29.84 CYGL 022100Z 02009G17KT 4SM -RA BR OVC005 07/07 A2984 RMK SF8 CIG RAG SLP115
HNS PAHN Haines, US Haines Airport 7 17 10 11/7 29.72 PAHN 022054Z AUTO 09007G17KT 10SM -RA OVC011 11/08 A2972 RMK AO2 RAB53 SLP067 P0000 60002 T01110078 53006 TSNO
YSY CYSY Sachs Harbour, CA Sachs Harbour (David Nasogaluak Jr. Saaryuaq) Airport 20 5 3/3 29.63 CYSY 022100Z 14020KT 5SM -SHRA BR OVC003 03/03 A2963 RMK ST8 SLP042
LTFO 20 1.55 19/17 30.00 LTFO 022050Z 21020KT 2500 SHRA SCT006 FEW020CB BKN028 19/17 Q1016 RESHRA
BUS UGSB Batumi, GE Batumi International Airport 18 6.21 19/18 29.94 UGSB 022100Z 22018KT 190V250 9999 -SHRA SCT018CB BKN035 19/18 Q1014 NOSIG
ENLE 18 6.21 14/8 29.88 ENLE 022050Z 20018KT 9999 -SHRA SCT020 BKN040 14/08 Q1012 W15/S3
ENWV 16 13/7 29.88 ENWV 022050Z AUTO 21016KT 9999NDV -SHRA OVC074/// 13/07 Q1012 W///S3
YAY CYAY St. Anthony, CA St. Anthony Airport 15 9 12/7 29.89 CYAY 022108Z AUTO 23015KT 9SM -RA BKN071 OVC089 12/07 A2989 RMK SLP125
SMX KSMX Santa Maria, US Santa Maria Pub/Capt G Allan Hancock Field 15 9 19/13 30.00 KSMX 022051Z 31015KT 9SM -RA CLR 19/14 A3000 RMK AO2 RAB22 SLP160 P0000 60000 T01940139 58010
EGS BIEG Egilsstaðir, IS Egilsstaðir Airport 15 4.97 6/5 29.47 BIEG 022100Z 01015KT 8000 DZRA OVC006 06/05 Q0998
ANX ENAN Andenes, NO Andøya Airport 14 6.21 6/4 29.65 ENAN 022050Z 05014KT 9999 -RA BKN019 06/04 Q1004
KGF UAKK Karaganda, KZ Sary-Arka Airport 14 6.21 8/7 30.00 UAKK 022100Z 06007MPS 9999 -SHRA BKN011 BKN040CB 08/07 Q1016 NOSIG RMK QFE715/0953
PVU KPVU Provo, US Provo Municipal Airport 14 10 8/5 30.04 KPVU 022056Z 15014KT 10SM -RA OVC035 09/06 A3004 RMK AO2 SLP155 P0002 60021 T00890056 50010
CWL EGFF Cardiff, GB Cardiff International Airport 14 2.8 13/13 29.85 EGFF 022050Z AUTO 34014KT 4500 RADZ SCT011/// BKN025/// OVC031/// //////CB 13/13 Q1011 RERA
HKT VTSP Phuket, TH Phuket International Airport 14 4.35 25/25 29.82 VTSP 022100Z 31014KT 7000 -RA SCT010 BKN015 25/25 Q1010 NOSIG
QCY EGXC Coningsby, GB RAF Coningsby 13 2.49 13/12 29.82 EGXC 022050Z 35013KT 4000 RA FEW008 OVC014 13/12 Q1010 RMK GRN
AVV YMAV Melbourne, AU Avalon Airport 13 6.21 18/16 29.70 YMAV 022100Z AUTO 32013KT 9999 -RA SCT036 OVC096 18/16 Q1006
RGA SAWE Rio Grande, AR Hermes Quijada International Airport 13 6.21 5/3 29.79 SAWE 022100Z 34013KT 9999 -RA NSC 05/03 Q1009 RMK PP999
LPX EVLA Liepāja, LV Liepāja International Airport 13 4.97 17/16 29.94 EVLA 022050Z AUTO 24013KT 8000 -RA BKN007/// OVC014/// 17/16 Q1014
YPA CYPA Prince Albert, CA Prince Albert Glass Field 13 2 7/7 29.81 CYPA 022105Z 13013KT 2SM -RA BR BKN007 OVC015 07/07 A2981 RMK ST6SC2 CIG RAG SLP113
EGE KEGE Eagle, US Eagle County Regional Airport 13 9 10/6 30.10 KEGE 022056Z 28013KT 9SM -RA BKN045 OVC055 11/07 A3010 RMK AO2 RAB38 SLP101 P0002 60002 T01060067 51036
RVK ENRM Rørvik, NO Rørvik Airport, Ryum 13 5.59 10/8 29.65 ENRM 022050Z AUTO 20013KT 9000 -RA NCD 10/08 Q1004
AST KAST Astoria, US Astoria Regional Airport 13 1.5 14/13 30.00 KAST 022103Z AUTO 20013KT 1 1/2SM RA BR SCT009 OVC016 14/13 A3000 RMK AO2 CIG 009 RWY 08 P0001 T01440133
HIF KHIF Ogden, US Hill Air Force Base 13 10 8/7 29.97 KHIF 022057Z COR 23013KT 10SM -RA SCT007 SCT020 BKN015 OVC036 09/07 A2997 RMK AO2A SLP125 P0009 60017 T00890070 52015 COR 2100
BOO ENBO Bodø, NO Bodø Airport 13 6.21 7/4 29.59 ENBO 022050Z 10013KT 9999 -SHRA FEW016 BKN032 07/04 Q1002 NOSIG
BNN ENBN Brønnøy, NO Brønnøysund Airport 13 10/8 29.62 ENBN 022050Z AUTO 19013KT 9999NDV -SHRA FEW017/// BKN027/// BKN036/// 10/08 Q1003
PTH PAPH Port Heiden, US Port Heiden Airport 12 10 / 30.04 PAPH 022056Z AUTO 36012KT 10SM -RA SCT029 BKN034 OVC043 A3004 RMK AO2 RAE12B47 SLPNO P0001 60009 51030 FZRANO $
EGYD Cranwell, GB RAF Cranwell 12 2.17 12/11 29.85 EGYD 022050Z AUTO 35012KT 3500 RA OVC013/// 12/11 Q1011
EPU EEPU Pärnu, EE Pärnu Airport 12 6.21 15/15 29.88 EEPU 022050Z AUTO 22012KT 9999 -RA OVC007/// 15/15 Q1012
BPI KBPI Big Piney, US Miley Memorial Field 12 10 6/5 29.98 KBPI 022108Z AUTO 28012KT 10SM VCTS -RA SCT023 SCT029 BKN040 06/05 A2998 RMK AO2 P0001 T00610050
EHMG 12 4.35 18/17 29.97 EHMG 022055Z AUTO 20012KT 7000 -RA FEW005 SCT015CB 18/17 Q1015 RERA REDZ
EHKV 12 6.21 18/17 29.88 EHKV 022055Z AUTO 14012KT 120V180 9999 -RA FEW015CB 18/17 Q1012
HQM KHQM Hoquiam, US Bowerman Airport 12 5 13/13 29.97 KHQM 022102Z AUTO 19012KT 5SM -RA BR SCT009 BKN015 OVC020 14/13 A2997 RMK AO2 P0000 T01390133
YVR CYVR Vancouver, CA Vancouver International Airport 11 1.25 12/12 29.98 CYVR 022100Z 11011KT 1 1/4SM -RA BR SCT007 OVC014 12/12 A2998 RMK ST4SC4 SLP153